Time;durP1;ratioP1;P1;durP2;ratioP2;P2;SDS_P1;SDS_P2;PMS_P1;PMS_P2;Temp;Humidity;BMP_temperature;BMP_pressure;BME280_temperature;BME280_humidity;BME280_pressure;Samples;Min_cycle;Max_cycle;Signal;HPM_P1;HPM_P2
2023/02/15 00:01:54;;;;;;;28.10;18.00;;;3.90;99.90;;;;;;5068921;27;20502;-78
2023/02/15 00:04:22;;;;;;;30.13;19.03;;;3.90;99.90;;;;;;5080740;27;21099;-75
2023/02/15 00:06:49;;;;;;;27.02;17.60;;;3.80;99.90;;;;;;5074230;27;20034;-76
2023/02/15 00:09:16;;;;;;;30.92;18.95;;;3.80;99.90;;;;;;5079319;28;20036;-76
2023/02/15 00:11:43;;;;;;;27.00;17.17;;;3.80;99.90;;;;;;5099216;27;20039;-75
2023/02/15 00:14:13;;;;;;;29.70;18.38;;;3.80;99.90;;;;;;5093316;27;20042;-75
2023/02/15 00:16:41;;;;;;;27.60;17.90;;;3.70;99.90;;;;;;5109948;27;20023;-75
2023/02/15 00:19:09;;;;;;;29.87;17.43;;;3.70;99.90;;;;;;5090498;27;20032;-76
2023/02/15 00:21:37;;;;;;;31.10;19.10;;;3.70;99.90;;;;;;5065906;27;20034;-75
2023/02/15 00:24:06;;;;;;;30.80;19.07;;;3.70;99.90;;;;;;5092744;27;20050;-75
2023/02/15 00:26:32;;;;;;;32.50;20.53;;;3.70;99.90;;;;;;5090989;27;20493;-75
2023/02/15 00:29:00;;;;;;;39.17;24.33;;;3.70;99.90;;;;;;5067189;27;20054;-75
2023/02/15 00:31:30;;;;;;;35.40;21.57;;;3.70;99.90;;;;;;5067806;27;20917;-76
2023/02/15 00:34:21;;;;;;;44.93;27.97;;;3.80;99.90;;;;;;5075683;27;20439;-76
2023/02/15 00:36:48;;;;;;;36.73;22.70;;;3.80;99.90;;;;;;5083123;27;20036;-74
2023/02/15 00:39:15;;;;;;;32.92;20.88;;;3.90;99.90;;;;;;5091913;27;20031;-77
2023/02/15 00:41:43;;;;;;;30.38;19.15;;;3.90;99.90;;;;;;5084012;27;20035;-76
2023/02/15 00:44:09;;;;;;;32.30;19.97;;;3.90;99.90;;;;;;5073633;27;20523;-75
2023/02/15 00:46:36;;;;;;;32.03;19.57;;;3.80;99.90;;;;;;5061812;28;20036;-76
2023/02/15 00:49:03;;;;;;;28.00;18.00;;;3.80;99.90;;;;;;5104986;27;20035;-75
2023/02/15 00:51:31;;;;;;;26.70;17.13;;;3.70;99.90;;;;;;5098982;27;20062;-75
2023/02/15 00:53:58;;;;;;;25.37;16.23;;;3.60;99.90;;;;;;5078713;27;20391;-75
2023/02/15 00:56:24;;;;;;;25.63;16.37;;;3.50;99.90;;;;;;5110120;27;20031;-77
2023/02/15 00:58:50;;;;;;;24.10;15.07;;;3.50;99.90;;;;;;5104219;27;20386;-76
2023/02/15 01:01:19;;;;;;;24.10;15.93;;;3.40;99.90;;;;;;5078336;28;20039;-76
2023/02/15 01:03:49;;;;;;;26.20;16.20;;;3.30;99.90;;;;;;5088949;27;20363;-75
2023/02/15 01:06:17;;;;;;;24.48;16.02;;;3.30;99.90;;;;;;5079261;27;20050;-76
2023/02/15 01:08:46;;;;;;;24.77;15.50;;;3.20;99.90;;;;;;5076100;27;20039;-75
2023/02/15 01:11:21;;;;;;;26.23;17.03;;;3.20;99.90;;;;;;5073698;27;20039;-75
2023/02/15 01:13:56;;;;;;;27.57;16.60;;;3.10;99.90;;;;;;5070479;27;20043;-76
2023/02/15 01:16:25;;;;;;;25.50;15.53;;;3.10;99.90;;;;;;5060028;27;20039;-76
2023/02/15 01:18:51;;;;;;;28.47;17.37;;;3.10;99.90;;;;;;5109066;27;20417;-75
2023/02/15 01:21:20;;;;;;;23.73;14.27;;;3.00;99.90;;;;;;5061657;27;20042;-77
2023/02/15 01:23:47;;;;;;;25.70;15.30;;;3.00;99.90;;;;;;5072930;27;20038;-77
2023/02/15 01:26:14;;;;;;;26.13;15.97;;;3.00;99.90;;;;;;5064548;27;20496;-75
2023/02/15 01:28:43;;;;;;;24.43;15.03;;;3.00;99.90;;;;;;5108290;27;20035;-76
2023/02/15 01:31:13;;;;;;;25.57;16.00;;;3.00;99.90;;;;;;5078567;27;20027;-76
2023/02/15 01:33:41;;;;;;;22.20;14.60;;;3.00;99.90;;;;;;5088082;27;20043;-76
2023/02/15 01:36:09;;;;;;;31.60;19.67;;;3.00;99.90;;;;;;5086491;27;20039;-76
2023/02/15 01:38:36;;;;;;;25.27;15.43;;;2.90;99.90;;;;;;5093915;27;20035;-77
2023/02/15 01:41:22;;;;;;;25.70;16.63;;;2.90;99.90;;;;;;5081350;27;20042;-77
2023/02/15 01:44:00;;;;;;;23.63;15.80;;;2.90;99.90;;;;;;5108267;27;20078;-76
2023/02/15 01:46:53;;;;;;;23.47;15.23;;;2.90;99.90;;;;;;5104834;27;20027;-76
2023/02/15 01:49:25;;;;;;;23.80;16.27;;;2.90;99.90;;;;;;5082814;28;20142;-77
2023/02/15 01:51:52;;;;;;;23.80;15.13;;;2.90;99.90;;;;;;5064797;27;20050;-79
2023/02/15 01:54:27;;;;;;;25.80;16.93;;;2.80;99.90;;;;;;5072483;27;21085;-76
2023/02/15 01:56:57;;;;;;;27.40;16.60;;;2.80;99.90;;;;;;5076773;27;20063;-78
2023/02/15 01:59:25;;;;;;;31.90;19.83;;;2.80;99.90;;;;;;5080476;27;21340;-78
2023/02/15 02:01:54;;;;;;;26.00;16.53;;;2.80;99.90;;;;;;5081497;27;20482;-76
2023/02/15 02:04:43;;;;;;;24.43;15.63;;;2.70;99.90;;;;;;5094429;27;20035;-76
2023/02/15 02:07:12;;;;;;;23.30;15.90;;;2.70;99.90;;;;;;5058261;28;20038;-75
2023/02/15 02:09:38;;;;;;;26.47;15.73;;;2.70;99.90;;;;;;5060916;27;20551;-78
2023/02/15 02:12:05;;;;;;;24.77;16.27;;;2.70;99.90;;;;;;5065168;27;20036;-75
2023/02/15 02:14:31;;;;;;;25.93;15.80;;;2.70;99.90;;;;;;5106085;27;20039;-76
2023/02/15 02:17:15;;;;;;;21.63;13.60;;;2.60;99.90;;;;;;5069396;28;20028;-75
2023/02/15 02:20:01;;;;;;;23.73;13.63;;;2.60;99.90;;;;;;5090717;28;20030;-76
2023/02/15 02:22:55;;;;;;;20.03;13.83;;;2.60;99.90;;;;;;5081412;28;20504;-78
2023/02/15 02:25:24;;;;;;;;;;;2.60;99.90;;;;;;5106306;27;20282;-75
2023/02/15 02:28:27;;;;;;;19.73;12.17;;;2.50;99.90;;;;;;5089638;28;20328;-76
2023/02/15 02:31:13;;;;;;;20.47;12.70;;;2.50;99.90;;;;;;5095361;27;20035;-76
2023/02/15 02:33:51;;;;;;;23.13;13.77;;;2.50;99.90;;;;;;5071303;27;20042;-77
2023/02/15 02:36:38;;;;;;;19.80;12.77;;;2.40;99.90;;;;;;5079429;28;20050;-76
2023/02/15 02:39:18;;;;;;;21.87;13.33;;;2.40;99.90;;;;;;5068232;28;20394;-77
2023/02/15 02:41:55;;;;;;;23.47;13.90;;;2.40;99.90;;;;;;5062050;28;20046;-76
2023/02/15 02:44:43;;;;;;;21.40;13.40;;;2.40;99.90;;;;;;5087675;28;20040;-75
2023/02/15 02:47:24;;;;;;;21.97;13.40;;;2.40;99.90;;;;;;5088163;28;20572;-77
2023/02/15 02:49:58;;;;;;;20.63;12.93;;;2.40;99.90;;;;;;5076486;28;20035;-75
2023/02/15 02:52:41;;;;;;;25.37;14.77;;;2.40;99.90;;;;;;5098470;28;20549;-77
2023/02/15 02:55:26;;;;;;;;;;;2.30;99.90;;;;;;5088283;28;20036;-77
2023/02/15 02:57:57;;;;;;;19.50;11.47;;;2.30;99.90;;;;;;5070514;28;20282;-75
2023/02/15 03:00:27;;;;;;;20.03;12.33;;;2.20;99.90;;;;;;5052893;28;20513;-76
2023/02/15 03:03:04;;;;;;;21.13;13.30;;;2.20;99.90;;;;;;5084486;28;20035;-76
2023/02/15 03:05:33;;;;;;;23.73;14.23;;;2.20;99.90;;;;;;5059884;28;20129;-76
2023/02/15 03:08:05;;;;;;;22.87;14.07;;;2.20;99.90;;;;;;5086278;28;20043;-75
2023/02/15 03:10:34;;;;;;;21.88;13.93;;;2.20;99.90;;;;;;5092223;28;20031;-75
2023/02/15 03:13:01;;;;;;;22.10;14.53;;;2.20;99.90;;;;;;5061104;28;20055;-76
2023/02/15 03:16:25;;;;;;;23.93;14.33;;;2.10;99.90;;;;;;5086459;28;20402;-75
2023/02/15 03:18:25;;;;;;;22.93;13.47;;;2.10;99.90;;;;;;5086468;28;20043;-76
2023/02/15 03:20:53;;;;;;;22.95;13.55;;;2.10;99.90;;;;;;5077149;28;20035;-75
2023/02/15 03:23:23;;;;;;;23.50;13.97;;;2.00;99.90;;;;;;5105991;28;20035;-76
2023/02/15 03:25:58;;;;;;;22.27;14.13;;;2.00;99.90;;;;;;5090452;27;20042;-76
2023/02/15 03:28:33;;;;;;;20.20;12.93;;;2.00;99.90;;;;;;5090729;27;20032;-76
2023/02/15 03:31:04;;;;;;;21.27;14.27;;;2.00;99.90;;;;;;5082104;27;20042;-76
2023/02/15 03:33:31;;;;;;;23.43;14.60;;;2.00;99.90;;;;;;5074504;27;20039;-75
2023/02/15 03:36:19;;;;;;;20.43;13.00;;;2.00;99.90;;;;;;5107784;27;20397;-75
2023/02/15 03:39:04;;;;;;;23.27;12.77;;;1.90;99.90;;;;;;5111299;27;20031;-77
2023/02/15 03:41:39;;;;;;;20.00;13.17;;;1.90;99.90;;;;;;5048308;27;21135;-77
2023/02/15 03:44:15;;;;;;;26.40;15.03;;;1.90;99.90;;;;;;5078802;27;20047;-75
2023/02/15 03:47:05;;;;;;;23.87;15.70;;;1.80;99.90;;;;;;5077630;27;20050;-75
2023/02/15 03:49:55;;;;;;;22.43;13.70;;;1.90;99.90;;;;;;5074266;27;20040;-76
2023/02/15 03:52:24;;;;;;;25.10;15.03;;;1.90;99.90;;;;;;5073346;27;20044;-77
2023/02/15 03:54:51;;;;;;;21.57;13.07;;;1.80;99.90;;;;;;5094118;27;20480;-76
2023/02/15 04:03:35;;;;;;;22.50;13.87;;;1.80;99.90;;;;;;5110591;27;20036;-76
2023/02/15 04:06:02;;;;;;;23.90;14.63;;;1.80;99.90;;;;;;5093066;27;20027;-75
2023/02/15 04:11:13;;;;;;;23.93;15.30;;;1.70;99.90;;;;;;5105540;27;20061;-76
2023/02/15 04:13:40;;;;;;;23.63;14.90;;;1.70;99.90;;;;;;5111363;27;20035;-75
2023/02/15 04:16:06;;;;;;;23.33;14.40;;;1.70;99.90;;;;;;5092838;27;20042;-76
2023/02/15 04:26:58;;;;;;;24.80;14.03;;;1.60;99.90;;;;;;5091825;27;20043;-76
2023/02/15 04:29:25;;;;;;;22.90;13.53;;;1.60;99.90;;;;;;5106877;27;20032;-78
2023/02/15 04:31:53;;;;;;;20.10;12.87;;;1.60;99.90;;;;;;5065279;27;20042;-76
2023/02/15 04:34:19;;;;;;;20.73;13.27;;;1.60;99.90;;;;;;5092354;27;20066;-77
2023/02/15 04:36:46;;;;;;;20.47;12.53;;;1.60;99.90;;;;;;5091281;28;20043;-76
2023/02/15 04:39:13;;;;;;;20.67;13.10;;;1.60;99.90;;;;;;5092154;27;20031;-76
2023/02/15 04:41:40;;;;;;;20.87;12.40;;;1.50;99.90;;;;;;5066349;27;20506;-76
2023/02/15 04:44:06;;;;;;;23.10;13.50;;;1.60;99.90;;;;;;5081002;27;20062;-77
2023/02/15 04:46:33;;;;;;;18.83;12.63;;;1.50;99.90;;;;;;5106467;27;20031;-76
2023/02/15 04:48:59;;;;;;;20.70;12.47;;;1.50;99.90;;;;;;5089043;27;20042;-76
2023/02/15 04:51:25;;;;;;;20.70;13.40;;;1.50;99.90;;;;;;5082221;27;20437;-77
2023/02/15 04:53:55;;;;;;;20.53;13.03;;;1.50;99.90;;;;;;5090404;27;20043;-76
2023/02/15 04:56:22;;;;;;;22.93;13.70;;;1.40;99.90;;;;;;5092222;27;20486;-77
2023/02/15 04:58:48;;;;;;;20.37;12.63;;;1.40;99.90;;;;;;5058765;27;20093;-76
2023/02/15 05:01:15;;;;;;;20.07;12.60;;;1.40;99.90;;;;;;5099817;27;20553;-76
2023/02/15 05:03:41;;;;;;;21.33;13.40;;;1.40;99.90;;;;;;5108220;27;20042;-75
2023/02/15 05:06:07;;;;;;;19.63;12.37;;;1.40;99.90;;;;;;5090268;27;20031;-76
2023/02/15 05:08:33;;;;;;;19.97;12.30;;;1.40;99.90;;;;;;5090248;27;20039;-77
2023/02/15 05:11:00;;;;;;;21.73;13.57;;;1.40;99.90;;;;;;5098169;27;20035;-77
2023/02/15 05:13:27;;;;;;;25.50;15.53;;;1.40;99.90;;;;;;5106648;27;20047;-75
2023/02/15 05:15:53;;;;;;;25.00;14.50;;;1.40;99.90;;;;;;5089625;27;20038;-75
2023/02/15 05:18:21;;;;;;;27.77;15.43;;;1.40;99.90;;;;;;5091811;27;20050;-75
2023/02/15 05:20:48;;;;;;;25.23;15.40;;;1.40;99.90;;;;;;5085818;27;20039;-78
2023/02/15 05:23:14;;;;;;;25.17;14.63;;;1.40;99.90;;;;;;5107703;27;20043;-75
2023/02/15 05:28:27;;;;;;;21.40;13.33;;;1.40;99.90;;;;;;5088745;27;20046;-75
2023/02/15 05:31:02;;;;;;;22.90;13.63;;;1.40;99.90;;;;;;5083457;27;20671;-76
2023/02/15 05:33:28;;;;;;;23.80;13.43;;;1.40;99.90;;;;;;5091741;27;20039;-76
2023/02/15 05:35:55;;;;;;;21.50;13.07;;;1.30;99.90;;;;;;5091881;27;20027;-77
2023/02/15 05:38:21;;;;;;;21.80;13.00;;;1.30;99.90;;;;;;5089942;28;20039;-76
2023/02/15 05:40:47;;;;;;;22.47;13.67;;;1.30;99.90;;;;;;5077897;27;20126;-76
2023/02/15 05:43:13;;;;;;;20.43;13.27;;;1.30;99.90;;;;;;5090067;27;20023;-78
2023/02/15 05:45:40;;;;;;;23.90;14.63;;;1.30;99.90;;;;;;5107834;27;20413;-76
2023/02/15 05:48:06;;;;;;;20.17;13.37;;;1.30;99.90;;;;;;5095060;27;20039;-76
2023/02/15 05:50:32;;;;;;;19.20;11.87;;;1.20;99.90;;;;;;5082732;28;20368;-77
2023/02/15 05:52:59;;;;;;;21.37;13.20;;;1.20;99.90;;;;;;5086933;27;20024;-76
2023/02/15 05:55:25;;;;;;;25.50;14.03;;;1.20;99.90;;;;;;5109715;27;20034;-76
2023/02/15 05:57:52;;;;;;;22.13;13.43;;;1.20;99.90;;;;;;5072203;27;20035;-76
2023/02/15 06:00:18;;;;;;;22.83;13.37;;;1.20;99.90;;;;;;5069362;27;20046;-78
2023/02/15 06:02:44;;;;;;;21.93;13.37;;;1.20;99.90;;;;;;5102290;27;20042;-77
2023/02/15 06:05:12;;;;;;;23.57;14.80;;;1.10;99.90;;;;;;5089519;27;20040;-77
2023/02/15 06:07:38;;;;;;;20.97;14.03;;;1.10;99.90;;;;;;5074317;27;20373;-79
2023/02/15 06:10:05;;;;;;;23.53;13.63;;;1.10;99.90;;;;;;5085638;27;20027;-76
2023/02/15 06:12:31;;;;;;;23.93;14.13;;;1.10;99.90;;;;;;5075681;27;20035;-76
2023/02/15 06:14:58;;;;;;;23.10;14.67;;;1.00;99.90;;;;;;5088478;28;20027;-77
2023/02/15 06:17:24;;;;;;;22.93;13.30;;;1.00;99.90;;;;;;5087855;27;20043;-77
2023/02/15 06:19:50;;;;;;;22.90;13.40;;;1.00;99.90;;;;;;5104920;27;20031;-76
2023/02/15 06:22:17;;;;;;;23.07;13.63;;;1.00;99.90;;;;;;5101825;27;20031;-78
2023/02/15 06:24:43;;;;;;;19.17;12.33;;;1.00;99.90;;;;;;5092615;27;20050;-78
2023/02/15 06:27:10;;;;;;;23.60;13.90;;;1.00;99.90;;;;;;5088001;27;20623;-77
2023/02/15 06:29:36;;;;;;;20.83;12.70;;;0.90;99.90;;;;;;5085795;28;20413;-76
2023/02/15 06:32:03;;;;;;;23.50;14.20;;;0.90;99.90;;;;;;5082658;28;20047;-77
2023/02/15 06:34:29;;;;;;;23.90;14.67;;;0.90;99.90;;;;;;5088897;27;20035;-77
2023/02/15 06:36:56;;;;;;;23.43;14.73;;;0.90;99.90;;;;;;5106390;27;20044;-80
2023/02/15 06:39:22;;;;;;;24.33;14.10;;;0.90;99.90;;;;;;5088497;28;20441;-79
2023/02/15 06:41:48;;;;;;;22.30;14.87;;;0.90;99.90;;;;;;5078706;28;20027;-77
2023/02/15 06:44:14;;;;;;;23.30;14.33;;;0.90;99.90;;;;;;5087127;28;20059;-79
2023/02/15 06:46:41;;;;;;;21.80;13.13;;;0.90;99.90;;;;;;5105059;28;20039;-77
2023/02/15 06:49:07;;;;;;;23.07;13.73;;;0.90;99.90;;;;;;5088449;28;20023;-76
2023/02/15 06:51:33;;;;;;;22.30;14.40;;;0.90;99.90;;;;;;5068212;28;20039;-79
2023/02/15 06:54:00;;;;;;;26.00;15.23;;;0.90;99.90;;;;;;5102916;28;20032;-77
2023/02/15 06:56:26;;;;;;;24.00;14.60;;;1.00;99.90;;;;;;5075056;28;20040;-77
2023/02/15 06:58:53;;;;;;;23.33;15.30;;;1.00;99.90;;;;;;5058498;28;20019;-77
2023/02/15 07:01:19;;;;;;;26.50;15.93;;;0.90;99.90;;;;;;5080549;27;20031;-78
2023/02/15 07:03:45;;;;;;;25.50;16.50;;;0.90;99.90;;;;;;5093441;27;20054;-77
2023/02/15 07:06:12;;;;;;;26.40;15.10;;;0.90;99.90;;;;;;5066379;27;20135;-76
2023/02/15 07:08:39;;;;;;;22.70;14.10;;;1.00;99.90;;;;;;5075198;27;20481;-77
2023/02/15 07:13:52;;;;;;;26.40;16.87;;;1.00;99.90;;;;;;5090778;28;20966;-76
2023/02/15 07:16:19;;;;;;;23.03;14.83;;;1.00;99.90;;;;;;5073860;27;20031;-79
2023/02/15 07:18:46;;;;;;;26.77;16.23;;;1.00;99.90;;;;;;5110565;27;20026;-78
2023/02/15 07:21:12;;;;;;;25.77;16.87;;;1.10;99.90;;;;;;5073054;27;20027;-77
2023/02/15 07:23:39;;;;;;;26.10;14.43;;;1.10;99.90;;;;;;5094519;27;20047;-76
2023/02/15 07:26:07;;;;;;;28.40;17.60;;;1.10;99.90;;;;;;5062239;27;20488;-77
2023/02/15 07:28:34;;;;;;;29.77;16.20;;;1.20;99.90;;;;;;5089224;27;20028;-77
2023/02/15 07:31:02;;;;;;;27.47;16.73;;;1.30;99.90;;;;;;5081976;27;20047;-76
2023/02/15 07:33:31;;;;;;;28.07;17.10;;;1.30;99.90;;;;;;5093557;27;20050;-75
2023/02/15 07:36:01;;;;;;;27.23;15.37;;;1.40;99.90;;;;;;5092416;27;20485;-76
2023/02/15 07:38:35;;;;;;;23.53;14.57;;;1.40;99.90;;;;;;5078595;27;20035;-76
2023/02/15 07:41:04;;;;;;;26.93;17.57;;;1.50;99.90;;;;;;5099853;27;20035;-77
2023/02/15 07:43:34;;;;;;;28.47;16.83;;;1.60;99.90;;;;;;5080859;27;20039;-77
2023/02/15 07:46:02;;;;;;;30.43;17.73;;;1.60;99.90;;;;;;5094188;27;20038;-75
2023/02/15 07:48:28;;;;;;;34.90;19.57;;;1.70;99.90;;;;;;5107917;27;20031;-74
2023/02/15 07:50:58;;;;;;;29.63;18.93;;;1.80;99.90;;;;;;5099321;27;20066;-74
2023/02/15 07:53:24;;;;;;;24.27;15.47;;;1.90;99.90;;;;;;5108609;27;20040;-74
2023/02/15 07:55:52;;;;;;;37.90;22.00;;;2.00;99.90;;;;;;5081719;27;20038;-75
2023/02/15 07:58:19;;;;;;;35.13;21.63;;;2.00;99.90;;;;;;5107108;27;20041;-76
2023/02/15 08:00:57;;;;;;;36.40;21.77;;;2.10;99.90;;;;;;5082160;27;20043;-76
2023/02/15 08:03:26;;;;;;;33.43;19.87;;;2.20;99.90;;;;;;5073549;27;20045;-75
2023/02/15 08:05:57;;;;;;;37.67;20.50;;;2.30;99.90;;;;;;5091935;27;20498;-75
2023/02/15 08:08:31;;;;;;;32.33;19.90;;;2.40;99.90;;;;;;5108550;27;20036;-78
2023/02/15 08:13:56;;;;;;;40.57;23.43;;;2.60;99.90;;;;;;5068195;27;20048;-77
2023/02/15 08:16:27;;;;;;;37.63;22.30;;;2.70;99.90;;;;;;5105850;27;20027;-76
2023/02/15 08:18:54;;;;;;;34.63;22.37;;;2.80;99.90;;;;;;5093347;27;20042;-75
2023/02/15 08:21:22;;;;;;;43.03;24.53;;;2.90;99.90;;;;;;5079888;27;20035;-76
2023/02/15 08:23:48;;;;;;;40.30;23.40;;;2.90;99.90;;;;;;5075948;28;20210;-75
2023/02/15 08:26:14;;;;;;;37.17;22.63;;;3.00;99.90;;;;;;5070134;28;20067;-75
2023/02/15 08:28:41;;;;;;;34.40;21.40;;;3.10;99.90;;;;;;5037158;28;20036;-75
2023/02/15 08:31:10;;;;;;;37.63;23.23;;;3.10;99.90;;;;;;5038779;28;20047;-76
2023/02/15 08:33:38;;;;;;;34.90;22.10;;;3.20;99.90;;;;;;5036303;28;20040;-75
2023/02/15 08:36:27;;;;;;;47.63;28.50;;;3.30;99.90;;;;;;5049093;28;20044;-76
2023/02/15 08:38:53;;;;;;;38.33;24.13;;;3.40;99.90;;;;;;5051164;28;20036;-75
2023/02/15 08:41:25;;;;;;;34.63;23.40;;;3.50;99.90;;;;;;5038097;28;20047;-75
2023/02/15 08:43:56;;;;;;;38.50;24.17;;;3.50;99.90;;;;;;5066967;28;22881;-75
2023/02/15 08:46:24;;;;;;;39.10;25.40;;;3.60;99.90;;;;;;5034840;28;20032;-75
2023/02/15 08:48:51;;;;;;;33.13;20.67;;;3.70;99.90;;;;;;5063466;28;20036;-74
2023/02/15 08:51:23;;;;;;;41.17;25.67;;;3.80;99.90;;;;;;5036790;28;20047;-75
2023/02/15 08:53:52;;;;;;;49.88;29.95;;;3.90;99.90;;;;;;5030870;28;20044;-73
2023/02/15 08:56:24;;;;;;;41.47;26.85;;;4.00;99.90;;;;;;5035071;28;20059;-74
2023/02/15 08:58:50;;;;;;;40.60;24.60;;;4.10;99.90;;;;;;5019425;28;20044;-75
2023/02/15 09:01:20;;;;;;;45.07;27.37;;;4.20;99.90;;;;;;5046197;28;20063;-74
2023/02/15 09:03:49;;;;;;;38.40;25.02;;;4.30;99.90;;;;;;5062327;28;20048;-77
2023/02/15 09:06:17;;;;;;;39.47;25.73;;;4.40;99.90;;;;;;5066634;28;20395;-74
2023/02/15 09:08:43;;;;;;;42.00;25.70;;;4.50;99.90;;;;;;5037848;28;20023;-78
2023/02/15 09:11:22;;;;;;;40.75;25.23;;;4.60;99.90;;;;;;5050059;28;20647;-77
2023/02/15 09:14:00;;;;;;;43.03;24.85;;;4.70;99.90;;;;;;5046811;28;20033;-77
2023/02/15 09:16:29;;;;;;;42.10;26.20;;;4.90;99.90;;;;;;5050210;28;20451;-81
2023/02/15 09:18:58;;;;;;;48.75;29.98;;;5.00;99.90;;;;;;5067796;28;20032;-78
2023/02/15 09:21:26;;;;;;;43.30;29.05;;;5.10;99.90;;;;;;5043034;28;20035;-82
2023/02/15 09:23:57;;;;;;;42.45;25.75;;;5.20;99.90;;;;;;5050621;28;20505;-77
2023/02/15 09:26:24;;;;;;;41.80;26.38;;;5.40;99.90;;;;;;5036775;28;22114;-79
2023/02/15 09:28:56;;;;;;;41.23;25.20;;;5.50;99.90;;;;;;5046729;28;20033;-77
2023/02/15 09:31:28;;;;;;;50.17;32.78;;;5.60;99.90;;;;;;5061193;28;20489;-77
2023/02/15 09:33:55;;;;;;;43.85;27.85;;;5.70;99.90;;;;;;5036801;28;20044;-76
2023/02/15 09:36:25;;;;;;;40.53;25.50;;;5.80;99.90;;;;;;5064988;28;20036;-76
2023/02/15 09:39:02;;;;;;;40.88;25.63;;;5.90;99.90;;;;;;5063889;28;20028;-78
2023/02/15 09:42:08;;;;;;;32.03;21.17;;;5.90;99.90;;;;;;5031707;28;20033;-76
2023/02/15 09:45:03;;;;;;;33.78;22.98;;;6.00;99.90;;;;;;5049718;28;20411;-74
2023/02/15 09:48:07;;;;;;;36.05;23.65;;;6.00;99.90;;;;;;5032151;28;20044;-75
2023/02/15 09:51:11;;;;;;;36.08;24.80;;;6.10;99.90;;;;;;5044949;28;20407;-75
2023/02/15 09:54:11;;;;;;;43.15;27.73;;;6.20;99.90;;;;;;5065974;28;20407;-74
2023/02/15 09:56:39;;;;;;;37.28;24.42;;;6.30;99.90;;;;;;5031473;28;20055;-74
2023/02/15 09:59:34;;;;;;;36.53;23.60;;;6.40;99.90;;;;;;5046769;28;20042;-74
2023/02/15 10:02:32;;;;;;;36.92;24.38;;;6.50;99.90;;;;;;5063089;28;20513;-74
2023/02/15 10:05:17;;;;;;;37.92;25.17;;;6.70;99.90;;;;;;5062572;28;20067;-73
2023/02/15 10:08:06;;;;;;;38.92;25.77;;;6.80;99.90;;;;;;5052351;28;20451;-73
2023/02/15 10:10:42;;;;;;;40.53;25.85;;;6.90;99.90;;;;;;5061613;28;20040;-74
2023/02/15 10:13:32;;;;;;;40.13;24.60;;;7.00;99.90;;;;;;5032782;28;20036;-73
2023/02/15 10:16:12;;;;;;;33.47;21.63;;;7.10;99.90;;;;;;5047077;28;20044;-73
2023/02/15 10:19:03;;;;;;;39.90;27.45;;;7.40;99.90;;;;;;5044217;28;20028;-74
2023/02/15 10:21:57;;;;;;;40.95;23.75;;;7.50;99.90;;;;;;5026270;28;20494;-74
2023/02/15 10:24:46;;;;;;;33.13;23.73;;;7.80;99.90;;;;;;5032063;28;20032;-74
2023/02/15 10:27:21;;;;;;;35.30;24.52;;;8.20;99.90;;;;;;5064945;28;20033;-74
2023/02/15 10:29:56;;;;;;;33.13;22.92;;;8.60;99.90;;;;;;5067357;28;20039;-76
2023/02/15 10:32:27;;;;;;;30.98;20.67;;;9.00;99.90;;;;;;5060203;28;20037;-77
2023/02/15 10:34:56;;;;;;;32.47;21.57;;;9.40;99.90;;;;;;5040510;28;21520;-75
2023/02/15 10:37:26;;;;;;;29.90;20.83;;;9.60;99.90;;;;;;5063208;28;20028;-74
2023/02/15 10:40:27;;;;;;;28.05;20.02;;;10.00;99.90;;;;;;5047015;28;20407;-74
2023/02/15 10:43:33;;;;;;;29.95;21.00;;;10.40;99.90;;;;;;4953690;28;20044;-75
2023/02/15 10:46:08;;;;;;;25.25;19.27;;;10.60;99.90;;;;;;5034217;28;20454;-76
2023/02/15 10:49:04;;;;;;;31.35;21.25;;;10.90;99.90;;;;;;5047636;28;20600;-76
2023/02/15 10:51:57;;;;;;;27.48;20.20;;;11.10;99.90;;;;;;5053607;28;20040;-75
2023/02/15 10:54:37;;;;;;;26.50;19.45;;;11.40;99.90;;;;;;5043497;28;20028;-75
2023/02/15 10:57:24;;;;;;;30.05;21.20;;;11.60;99.90;;;;;;5066051;28;20052;-76
2023/02/15 11:00:22;;;;;;;25.52;19.80;;;11.80;99.90;;;;;;5066610;28;20483;-76
2023/02/15 11:03:21;;;;;;;26.20;19.05;;;12.00;99.90;;;;;;5061495;28;20041;-77
2023/02/15 11:06:02;;;;;;;25.05;18.13;;;12.40;99.90;;;;;;5022498;28;20039;-77
2023/02/15 11:08:33;;;;;;;26.48;18.98;;;12.60;99.90;;;;;;5061899;28;20043;-77
2023/02/15 11:11:08;;;;;;;30.80;19.67;;;12.90;99.90;;;;;;5024624;28;20032;-77
2023/02/15 11:13:41;;;;;;;26.20;18.98;;;13.10;99.90;;;;;;5017828;28;20048;-75
2023/02/15 11:16:23;;;;;;;22.48;17.80;;;13.30;99.90;;;;;;5059574;28;20032;-76
2023/02/15 11:19:05;;;;;;;25.23;17.30;;;13.30;99.90;;;;;;5041864;28;20036;-75
2023/02/15 11:21:32;;;;;;;25.45;18.60;;;13.10;99.90;;;;;;5037908;28;20091;-76
2023/02/15 11:24:01;;;;;;;25.42;18.42;;;12.70;99.90;;;;;;5029175;28;20044;-77
2023/02/15 11:26:34;;;;;;;22.13;16.38;;;12.40;99.90;;;;;;5031485;28;20029;-75
2023/02/15 11:29:10;;;;;;;21.88;17.20;;;12.10;99.90;;;;;;5066016;28;20632;-77
2023/02/15 11:31:50;;;;;;;25.55;18.98;;;11.80;99.90;;;;;;5044529;28;20032;-76
2023/02/15 11:34:21;;;;;;;24.13;16.88;;;11.50;99.90;;;;;;5061197;28;20044;-74
2023/02/15 11:36:50;;;;;;;27.48;18.08;;;11.30;99.90;;;;;;5044616;28;20041;-76
2023/02/15 11:39:18;;;;;;;24.45;16.58;;;11.10;99.90;;;;;;5018379;28;20507;-76
2023/02/15 11:41:57;;;;;;;23.17;16.92;;;11.10;99.90;;;;;;5014083;28;20080;-78
2023/02/15 11:44:41;;;;;;;25.88;16.42;;;11.00;99.90;;;;;;5044027;28;20079;-76
2023/02/15 11:47:11;;;;;;;26.50;16.95;;;11.00;99.90;;;;;;5061617;28;20030;-76
2023/02/15 11:49:38;;;;;;;28.08;19.73;;;11.00;99.90;;;;;;5069881;28;20506;-75
2023/02/15 11:52:10;;;;;;;26.33;18.25;;;11.00;99.90;;;;;;5044906;28;20043;-80
2023/02/15 11:54:41;;;;;;;29.38;19.20;;;11.00;99.90;;;;;;5019962;28;20044;-77
2023/02/15 11:57:35;;;;;;;26.08;19.13;;;11.10;99.90;;;;;;5062712;28;20379;-76
2023/02/15 12:00:05;;;;;;;24.83;17.10;;;11.20;99.90;;;;;;5031506;28;20036;-78
2023/02/15 12:02:38;;;;;;;25.45;16.77;;;11.30;99.90;;;;;;5050065;28;20036;-74
2023/02/15 12:05:19;;;;;;;22.52;15.05;;;11.40;99.90;;;;;;5048488;28;20039;-77
2023/02/15 12:08:03;;;;;;;24.88;14.93;;;11.50;99.90;;;;;;5049372;28;20032;-74
2023/02/15 12:10:36;;;;;;;25.00;15.82;;;11.50;99.90;;;;;;5062072;28;20036;-75
2023/02/15 12:13:17;;;;;;;26.83;17.95;;;11.60;99.90;;;;;;5066108;28;20032;-73
2023/02/15 12:15:50;;;;;;;26.63;16.70;;;11.60;99.90;;;;;;5051679;28;20043;-74
2023/02/15 12:18:36;;;;;;;;;;;11.70;99.90;;;;;;5020732;28;20037;-77
2023/02/15 12:21:13;;;;;;;29.75;19.80;;;11.70;99.90;;;;;;5035043;28;19916;-75
2023/02/15 12:23:52;;;;;;;29.38;18.67;;;11.90;99.90;;;;;;5037802;28;20612;-75
2023/02/15 12:26:25;;;;;;;40.25;28.13;;;12.10;99.90;;;;;;5050783;28;20040;-79
2023/02/15 12:28:54;;;;;;;31.75;22.27;;;12.60;99.90;;;;;;5041851;28;20047;-79
2023/02/15 12:31:24;;;;;;;29.80;19.85;;;12.90;99.90;;;;;;5047677;28;20481;-76
2023/02/15 12:33:57;;;;;;;27.52;18.85;;;13.10;99.90;;;;;;5021736;28;20040;-74
2023/02/15 12:36:32;;;;;;;33.08;21.83;;;13.10;99.90;;;;;;5066196;28;20048;-78
2023/02/15 12:39:21;;;;;;;34.38;20.50;;;13.00;99.90;;;;;;5033369;28;20377;-75
2023/02/15 12:41:54;;;;;;;27.70;17.67;;;12.90;99.90;;;;;;5064143;28;20029;-78
2023/02/15 12:44:35;;;;;;;28.67;18.10;;;12.90;99.90;;;;;;5048194;28;20428;-76
2023/02/15 12:47:17;;;;;;;27.10;17.88;;;13.20;99.90;;;;;;5051730;28;20040;-75
2023/02/15 12:50:03;;;;;;;25.35;17.17;;;13.90;99.90;;;;;;5048276;28;20032;-78
2023/02/15 12:52:29;;;;;;;27.90;18.23;;;14.30;99.90;;;;;;5045307;28;20052;-76
2023/02/15 12:55:20;;;;;;;22.48;15.80;;;14.40;99.90;;;;;;5065857;28;20044;-74
2023/02/15 12:57:47;;;;;;;26.60;19.13;;;14.20;99.90;;;;;;5065562;28;20510;-75
2023/02/15 13:00:20;;;;;;;27.58;19.45;;;14.00;99.90;;;;;;5048839;28;20504;-78
2023/02/15 13:02:49;;;;;;;27.90;19.27;;;13.70;99.90;;;;;;5064597;28;20484;-74
2023/02/15 13:05:26;;;;;;;23.00;16.67;;;13.40;99.90;;;;;;5034133;28;20024;-75
2023/02/15 13:07:57;;;;;;;24.90;16.55;;;13.30;99.90;;;;;;5068781;28;20479;-79
2023/02/15 13:10:31;;;;;;;26.27;17.38;;;13.10;99.90;;;;;;5025502;28;20065;-76
2023/02/15 13:12:57;;;;;;;24.83;16.65;;;13.00;99.90;;;;;;5062033;28;20048;-75
2023/02/15 13:15:28;;;;;;;24.90;17.15;;;12.90;99.90;;;;;;5066904;28;20059;-74
2023/02/15 13:17:57;;;;;;;25.45;17.33;;;12.80;99.90;;;;;;5046367;28;20051;-78
2023/02/15 13:20:26;;;;;;;24.67;16.30;;;12.70;99.90;;;;;;5060398;28;20040;-79
2023/02/15 13:22:57;;;;;;;30.20;21.35;;;12.70;99.90;;;;;;5036923;28;20403;-74
2023/02/15 13:25:30;;;;;;;26.55;18.00;;;12.60;99.90;;;;;;5045181;28;20372;-74
2023/02/15 13:28:02;;;;;;;23.13;16.17;;;12.60;99.90;;;;;;5047533;28;20028;-74
2023/02/15 13:30:35;;;;;;;25.55;17.60;;;12.50;99.90;;;;;;5059788;28;20507;-77